Time;durP1;ratioP1;P1;durP2;ratioP2;P2;SDS_P1;SDS_P2;PMS_P1;PMS_P2;Temp;Humidity;BMP_temperature;BMP_pressure;BME280_temperature;BME280_humidity;BME280_pressure;Samples;Min_cycle;Max_cycle;Signal;HPM_P1;HPM_P2
2023/10/29 00:00:59;;;;;;;25.10;14.20;;;9.00;99.90;;;;;;5054798;28;20197;-42
2023/10/29 00:03:25;;;;;;;23.70;14.93;;;9.00;99.90;;;;;;5054472;28;20182;-43
2023/10/29 00:05:51;;;;;;;27.37;15.50;;;9.10;99.90;;;;;;5054681;28;20186;-43
2023/10/29 00:08:16;;;;;;;23.90;14.40;;;9.10;99.90;;;;;;5054574;28;20428;-43
2023/10/29 00:10:42;;;;;;;20.47;14.23;;;9.10;99.90;;;;;;5054708;28;20279;-43
2023/10/29 00:13:08;;;;;;;26.07;16.43;;;9.20;99.90;;;;;;5054292;28;20664;-43
2023/10/29 00:15:34;;;;;;;29.87;18.10;;;9.20;99.90;;;;;;5054389;28;20175;-44
2023/10/29 00:18:00;;;;;;;26.87;15.97;;;9.20;99.90;;;;;;5054765;28;20417;-43
2023/10/29 00:20:25;;;;;;;24.53;16.27;;;9.20;99.90;;;;;;5054206;28;20659;-44
2023/10/29 00:22:51;;;;;;;24.53;15.10;;;9.20;99.90;;;;;;5054215;28;20452;-44
2023/10/29 00:25:17;;;;;;;28.73;16.83;;;9.20;99.90;;;;;;5054451;28;20201;-44
2023/10/29 00:27:42;;;;;;;26.60;15.63;;;9.30;99.90;;;;;;5054405;28;20174;-43
2023/10/29 00:30:08;;;;;;;24.50;14.53;;;9.20;99.90;;;;;;5054263;28;20631;-43
2023/10/29 00:32:34;;;;;;;25.03;15.90;;;9.20;99.90;;;;;;5054242;28;20222;-44
2023/10/29 00:35:00;;;;;;;23.00;15.33;;;9.20;99.90;;;;;;5054304;28;20432;-44
2023/10/29 00:37:25;;;;;;;25.17;14.80;;;9.20;99.90;;;;;;5054129;28;20184;-44
2023/10/29 00:39:51;;;;;;;22.87;15.23;;;9.20;99.90;;;;;;5054147;28;20186;-43
2023/10/29 00:42:16;;;;;;;24.33;15.23;;;9.20;99.90;;;;;;5053697;28;20186;-44
2023/10/29 00:44:42;;;;;;;21.97;13.27;;;9.20;99.90;;;;;;5053727;28;20183;-44
2023/10/29 00:47:08;;;;;;;21.97;13.23;;;9.30;99.90;;;;;;5053996;28;20185;-44
2023/10/29 00:49:36;;;;;;;25.67;13.00;;;9.40;99.90;;;;;;5054205;28;20186;-44
2023/10/29 00:52:02;;;;;;;22.37;12.60;;;9.20;99.90;;;;;;5053652;28;20486;-43
2023/10/29 00:54:29;;;;;;;17.20;12.10;;;9.20;99.90;;;;;;5053814;28;20427;-44
2023/10/29 00:56:55;;;;;;;22.53;13.27;;;9.20;99.90;;;;;;5053767;28;20425;-44
2023/10/29 00:59:21;;;;;;;16.20;12.87;;;9.20;99.90;;;;;;5053591;28;20420;-43
2023/10/29 01:01:47;;;;;;;21.43;12.53;;;9.20;99.90;;;;;;5054540;28;20243;-44
2023/10/29 01:04:13;;;;;;;17.27;12.43;;;9.20;99.90;;;;;;5055113;28;20913;-44
2023/10/29 01:06:40;;;;;;;32.00;14.50;;;9.20;99.90;;;;;;5054652;28;20538;-44
2023/10/29 01:09:07;;;;;;;22.80;14.30;;;9.20;99.90;;;;;;5054833;28;20663;-44
2023/10/29 01:11:33;;;;;;;24.70;13.00;;;9.20;99.90;;;;;;5054749;28;20461;-44
2023/10/29 01:14:00;;;;;;;21.73;13.10;;;9.30;99.90;;;;;;5054830;28;20511;-44
2023/10/29 01:16:27;;;;;;;21.83;12.40;;;9.20;99.90;;;;;;5054580;28;20478;-44
2023/10/29 01:18:54;;;;;;;21.73;12.07;;;9.30;99.90;;;;;;5054647;28;20421;-44
2023/10/29 01:21:20;;;;;;;20.90;12.43;;;9.30;99.90;;;;;;5054655;28;20467;-44
2023/10/29 01:23:46;;;;;;;21.33;13.07;;;9.30;99.90;;;;;;5054604;28;20807;-44
2023/10/29 01:26:12;;;;;;;18.37;12.17;;;9.40;99.90;;;;;;5054525;28;20237;-44
2023/10/29 01:28:37;;;;;;;14.90;10.87;;;9.30;99.90;;;;;;5054495;28;20182;-44
2023/10/29 01:31:03;;;;;;;18.50;11.27;;;9.40;99.90;;;;;;5054701;28;20811;-44
2023/10/29 01:33:28;;;;;;;17.80;10.50;;;9.40;99.90;;;;;;5054116;28;20202;-44
2023/10/29 01:35:54;;;;;;;21.03;10.27;;;9.40;99.90;;;;;;5054326;28;20182;-44
2023/10/29 01:38:19;;;;;;;20.23;10.00;;;9.40;99.90;;;;;;5054326;28;20178;-44
2023/10/29 01:40:45;;;;;;;16.80;10.03;;;9.40;99.90;;;;;;5054237;28;20192;-44
2023/10/29 01:43:10;;;;;;;17.40;9.23;;;9.40;99.90;;;;;;5053907;28;20181;-44
2023/10/29 01:45:37;;;;;;;13.70;9.40;;;9.40;99.90;;;;;;5054155;28;20182;-44
2023/10/29 01:48:03;;;;;;;14.50;8.87;;;9.40;99.90;;;;;;5054065;28;20186;-44
2023/10/29 01:50:28;;;;;;;16.60;9.80;;;9.50;99.90;;;;;;5053561;28;20558;-44
2023/10/29 01:52:54;;;;;;;15.43;10.10;;;9.50;99.90;;;;;;5053587;28;20183;-44
2023/10/29 01:55:20;;;;;;;14.07;9.53;;;9.50;99.90;;;;;;5053754;28;20190;-44
2023/10/29 01:57:45;;;;;;;15.67;9.73;;;9.50;99.90;;;;;;5053661;28;20217;-44
2023/10/29 02:00:12;;;;;;;15.23;10.43;;;9.50;99.90;;;;;;5053595;28;20179;-44
2023/10/29 02:02:38;;;;;;;21.60;11.13;;;9.50;99.90;;;;;;5053914;28;20206;-44
2023/10/29 02:05:04;;;;;;;16.73;10.53;;;9.50;99.90;;;;;;5053801;28;20945;-44
2023/10/29 02:07:30;;;;;;;16.63;9.70;;;9.60;99.90;;;;;;5053796;28;20183;-44
2023/10/29 02:09:56;;;;;;;16.93;9.37;;;9.60;99.90;;;;;;5053758;28;20841;-44
2023/10/29 02:12:21;;;;;;;19.23;8.80;;;9.60;99.90;;;;;;5053648;28;20483;-44
2023/10/29 02:14:47;;;;;;;12.17;8.60;;;9.60;99.90;;;;;;5053405;28;20183;-44
2023/10/29 02:17:12;;;;;;;15.37;9.37;;;9.60;99.90;;;;;;5053653;28;20221;-44
2023/10/29 02:19:38;;;;;;;15.93;8.73;;;9.60;99.90;;;;;;5053640;28;20210;-44
2023/10/29 02:22:04;;;;;;;16.97;8.10;;;9.60;99.90;;;;;;5053574;28;20182;-44
2023/10/29 02:24:29;;;;;;;18.87;10.00;;;9.60;99.90;;;;;;5053570;28;20232;-44
2023/10/29 02:26:55;;;;;;;13.90;8.80;;;9.70;99.90;;;;;;5053376;28;20195;-44
2023/10/29 02:29:21;;;;;;;14.90;8.90;;;9.60;99.90;;;;;;5053205;28;20179;-44
2023/10/29 02:31:47;;;;;;;19.03;10.20;;;9.60;99.90;;;;;;5053409;28;20467;-44
2023/10/29 02:34:12;;;;;;;15.10;9.67;;;9.60;99.90;;;;;;5053292;28;20186;-44
2023/10/29 02:36:38;;;;;;;17.57;11.20;;;9.60;99.90;;;;;;5053447;28;20190;-44
2023/10/29 02:39:03;;;;;;;17.93;10.77;;;9.60;99.90;;;;;;5053354;28;20197;-44
2023/10/29 02:41:30;;;;;;;17.03;10.93;;;9.60;99.90;;;;;;5053115;28;20183;-43
2023/10/29 02:43:58;;;;;;;18.17;10.97;;;9.60;99.90;;;;;;5053116;28;20169;-44
2023/10/29 02:46:24;;;;;;;20.70;9.70;;;9.60;99.90;;;;;;5053382;28;20828;-44
2023/10/29 02:48:49;;;;;;;17.17;9.97;;;9.60;99.90;;;;;;5053250;28;20452;-44
2023/10/29 02:51:15;;;;;;;12.97;9.63;;;9.60;99.90;;;;;;5053320;28;20950;-44
2023/10/29 02:53:41;;;;;;;15.20;9.87;;;9.60;99.90;;;;;;5053249;28;20229;-43
2023/10/29 02:56:06;;;;;;;9.87;8.87;;;9.60;99.90;;;;;;5053240;28;20178;-44
2023/10/29 02:58:32;;;;;;;14.83;9.50;;;9.60;99.90;;;;;;5052990;28;20178;-44
2023/10/29 03:01:08;;;;;;;18.73;10.13;;;9.60;99.90;;;;;;5053177;28;20258;-44
2023/10/29 03:03:37;;;;;;;18.07;9.13;;;9.70;99.90;;;;;;5053243;28;20607;-44
2023/10/29 03:06:07;;;;;;;20.90;10.27;;;9.70;99.90;;;;;;5055338;28;20413;-44
2023/10/29 03:08:33;;;;;;;15.40;11.30;;;9.70;99.90;;;;;;5057153;28;20417;-44
2023/10/29 03:10:59;;;;;;;15.03;9.63;;;9.70;99.90;;;;;;5057009;28;20464;-44
2023/10/29 03:13:25;;;;;;;15.80;10.47;;;9.70;99.90;;;;;;5056792;28;20417;-44
2023/10/29 03:15:50;;;;;;;13.10;9.50;;;9.70;99.90;;;;;;5056994;28;20190;-44
2023/10/29 03:18:16;;;;;;;16.97;11.47;;;9.80;99.90;;;;;;5056940;28;20194;-45
2023/10/29 03:20:42;;;;;;;13.67;8.50;;;9.80;99.90;;;;;;5056924;28;20175;-44
2023/10/29 03:23:08;;;;;;;10.60;9.30;;;9.80;99.90;;;;;;5056585;28;20179;-44
2023/10/29 03:25:34;;;;;;;12.30;9.43;;;9.80;99.90;;;;;;5056532;28;20189;-44
2023/10/29 03:27:59;;;;;;;12.53;9.20;;;9.80;99.90;;;;;;5056747;28;20409;-44
2023/10/29 03:30:25;;;;;;;21.53;9.73;;;9.80;99.90;;;;;;5056688;28;20966;-44
2023/10/29 03:32:50;;;;;;;13.57;8.77;;;9.80;99.90;;;;;;5057296;28;20673;-44
2023/10/29 03:35:17;;;;;;;18.40;9.37;;;9.80;99.90;;;;;;5057136;28;20530;-44
2023/10/29 03:37:43;;;;;;;16.17;7.63;;;9.90;99.90;;;;;;5056956;28;20187;-44
2023/10/29 03:40:08;;;;;;;11.03;8.00;;;9.90;99.90;;;;;;5057414;28;20504;-45
2023/10/29 03:42:34;;;;;;;12.10;7.73;;;9.90;99.90;;;;;;5057042;28;20185;-44
2023/10/29 03:45:00;;;;;;;8.17;7.30;;;9.90;99.90;;;;;;5056916;28;20189;-44
2023/10/29 03:47:25;;;;;;;14.40;7.80;;;9.80;99.90;;;;;;5056979;28;20746;-44
2023/10/29 03:49:51;;;;;;;8.90;7.40;;;9.80;99.90;;;;;;5057080;28;20529;-45
2023/10/29 03:52:19;;;;;;;9.97;7.70;;;9.90;99.90;;;;;;5056481;28;20238;-44
2023/10/29 03:54:45;;;;;;;9.30;7.80;;;9.90;99.90;;;;;;5056991;28;20195;-44
2023/10/29 03:57:10;;;;;;;16.03;7.70;;;9.90;99.90;;;;;;5056848;28;20771;-44
2023/10/29 03:59:37;;;;;;;9.30;8.23;;;10.00;99.90;;;;;;5056831;28;20534;-44
2023/10/29 04:02:03;;;;;;;10.57;7.60;;;10.10;99.90;;;;;;5056364;28;20191;-44
2023/10/29 04:04:29;;;;;;;8.37;7.47;;;10.10;99.90;;;;;;5056572;28;20526;-44
2023/10/29 04:06:55;;;;;;;13.20;8.00;;;10.10;99.90;;;;;;5056539;28;20186;-44
2023/10/29 04:09:20;;;;;;;8.87;7.30;;;10.10;99.90;;;;;;5056157;28;20520;-44
2023/10/29 04:11:46;;;;;;;10.90;6.77;;;10.10;99.90;;;;;;5056435;28;20614;-44
2023/10/29 04:14:12;;;;;;;7.00;6.07;;;10.10;99.90;;;;;;5056432;28;20208;-45
2023/10/29 04:16:37;;;;;;;13.33;6.00;;;10.20;99.90;;;;;;5055748;28;20184;-44
2023/10/29 04:19:03;;;;;;;9.07;5.60;;;10.20;99.90;;;;;;5056252;28;20179;-44
2023/10/29 04:21:28;;;;;;;7.73;6.43;;;10.30;99.90;;;;;;5055874;28;20179;-44
2023/10/29 04:23:54;;;;;;;6.20;5.60;;;10.30;99.90;;;;;;5055775;28;20192;-44
2023/10/29 04:26:19;;;;;;;6.40;5.70;;;10.30;99.90;;;;;;5055707;28;20179;-44
2023/10/29 04:28:45;;;;;;;6.10;5.47;;;10.30;99.90;;;;;;5055853;28;20269;-44
2023/10/29 04:31:11;;;;;;;8.60;5.73;;;10.30;99.90;;;;;;5055910;28;20303;-44
2023/10/29 04:33:38;;;;;;;6.70;4.83;;;10.40;99.90;;;;;;5055921;28;20215;-44
2023/10/29 04:36:04;;;;;;;10.80;5.60;;;10.40;99.90;;;;;;5055935;28;20650;-44
2023/10/29 04:38:31;;;;;;;8.70;6.70;;;10.40;99.90;;;;;;5055574;28;20464;-44
2023/10/29 04:40:57;;;;;;;7.50;5.37;;;10.40;99.90;;;;;;5055704;28;20910;-44
2023/10/29 04:43:22;;;;;;;5.83;5.23;;;10.50;99.90;;;;;;5055774;28;20458;-44
2023/10/29 04:45:48;;;;;;;7.00;5.60;;;10.40;99.90;;;;;;5055382;28;20178;-44
2023/10/29 04:48:14;;;;;;;8.53;6.00;;;10.40;99.90;;;;;;5055487;28;20185;-44
2023/10/29 04:50:39;;;;;;;6.87;5.20;;;10.50;99.90;;;;;;5055299;28;20602;-44
2023/10/29 04:53:05;;;;;;;6.60;5.40;;;10.40;99.90;;;;;;5055964;28;20193;-44
2023/10/29 04:55:30;;;;;;;8.23;5.73;;;10.40;99.90;;;;;;5055508;28;20209;-44
2023/10/29 04:57:57;;;;;;;7.10;5.33;;;10.50;99.90;;;;;;5055614;28;20568;-44
2023/10/29 05:00:22;;;;;;;7.13;5.33;;;10.50;99.90;;;;;;5055633;28;20187;-44
2023/10/29 05:02:48;;;;;;;9.60;5.90;;;10.50;99.90;;;;;;5055356;28;20418;-44
2023/10/29 05:05:13;;;;;;;7.80;5.27;;;10.50;99.90;;;;;;5055237;28;20177;-44
2023/10/29 05:07:41;;;;;;;7.03;5.03;;;10.50;99.90;;;;;;5055276;28;20176;-44
2023/10/29 05:10:06;;;;;;;7.23;4.87;;;10.60;99.90;;;;;;5055591;28;20187;-44
2023/10/29 05:12:32;;;;;;;7.17;4.80;;;10.60;99.90;;;;;;5055362;28;20466;-44
2023/10/29 05:14:58;;;;;;;10.20;5.13;;;10.60;99.90;;;;;;5055577;28;20467;-44
2023/10/29 05:17:23;;;;;;;7.97;4.80;;;10.60;99.90;;;;;;5055470;28;20175;-44
2023/10/29 05:19:49;;;;;;;8.07;5.03;;;10.60;99.90;;;;;;5055373;28;20183;-44
2023/10/29 05:22:14;;;;;;;8.33;5.27;;;10.60;99.90;;;;;;5054875;28;20187;-44
2023/10/29 05:24:40;;;;;;;4.93;4.17;;;10.60;99.90;;;;;;5054621;28;20332;-44
2023/10/29 05:27:05;;;;;;;10.70;5.50;;;10.50;99.90;;;;;;5054310;28;20186;-44
2023/10/29 05:29:32;;;;;;;5.63;4.80;;;10.50;99.90;;;;;;5054115;28;20172;-44
2023/10/29 05:31:58;;;;;;;5.20;4.70;;;10.60;99.90;;;;;;5054843;28;20209;-44
2023/10/29 05:34:23;;;;;;;6.23;4.90;;;10.60;99.90;;;;;;5054809;28;20762;-44
2023/10/29 05:36:49;;;;;;;10.60;4.90;;;10.60;99.90;;;;;;5055019;28;20233;-44
2023/10/29 05:39:15;;;;;;;6.70;4.40;;;10.50;99.90;;;;;;5054781;28;20696;-44
2023/10/29 05:41:41;;;;;;;7.13;4.80;;;10.50;99.90;;;;;;5054690;28;20587;-44
2023/10/29 05:44:06;;;;;;;7.40;5.03;;;10.50;99.90;;;;;;5054351;28;20637;-44
2023/10/29 05:46:32;;;;;;;7.63;4.30;;;10.50;99.90;;;;;;5054513;28;20476;-44
2023/10/29 05:48:58;;;;;;;5.87;4.70;;;10.50;99.90;;;;;;5054551;28;20183;-44
2023/10/29 05:51:24;;;;;;;8.93;4.33;;;10.70;99.90;;;;;;5053974;28;20234;-44
2023/10/29 05:53:49;;;;;;;8.70;5.07;;;10.70;99.90;;;;;;5054434;28;20416;-44
2023/10/29 05:56:17;;;;;;;7.93;4.50;;;10.70;99.90;;;;;;5054232;28;20206;-45
2023/10/29 05:58:43;;;;;;;5.13;4.60;;;10.70;99.90;;;;;;5054408;28;20255;-44
2023/10/29 06:01:10;;;;;;;7.90;4.80;;;10.70;99.90;;;;;;5054364;28;20453;-44
2023/10/29 06:03:36;;;;;;;5.20;4.70;;;10.70;99.90;;;;;;5054304;28;20560;-44
2023/10/29 06:06:02;;;;;;;12.13;5.50;;;10.80;99.90;;;;;;5054197;28;20426;-44
2023/10/29 06:08:28;;;;;;;5.80;4.17;;;10.70;99.90;;;;;;5053748;28;20524;-44
2023/10/29 06:10:53;;;;;;;6.03;4.50;;;10.70;99.90;;;;;;5053807;28;20471;-44
2023/10/29 06:13:19;;;;;;;6.60;4.90;;;10.80;99.90;;;;;;5053908;28;20212;-44
2023/10/29 06:15:44;;;;;;;5.40;3.93;;;10.80;99.90;;;;;;5054352;28;20183;-44
2023/10/29 06:18:10;;;;;;;8.07;5.07;;;10.80;99.90;;;;;;5053790;28;20197;-44
2023/10/29 06:20:41;;;;;;;9.10;4.40;;;10.80;99.90;;;;;;5054246;28;20195;-44
2023/10/29 06:23:07;;;;;;;10.50;3.93;;;10.90;99.90;;;;;;5054386;28;20176;-44
2023/10/29 06:25:32;;;;;;;5.00;3.67;;;10.90;99.90;;;;;;5054091;28;20453;-44
2023/10/29 06:27:58;;;;;;;7.50;4.33;;;11.00;99.90;;;;;;5053905;28;20424;-44
2023/10/29 06:30:23;;;;;;;6.40;4.03;;;10.90;99.90;;;;;;5053721;28;20188;-44
2023/10/29 06:32:49;;;;;;;4.30;3.90;;;11.00;99.90;;;;;;5054070;28;20217;-44
2023/10/29 06:35:14;;;;;;;4.43;3.90;;;11.00;99.90;;;;;;5053849;28;20232;-44
2023/10/29 06:37:40;;;;;;;8.03;3.70;;;11.00;99.90;;;;;;5054042;28;20645;-44
2023/10/29 06:40:07;;;;;;;9.73;3.73;;;11.00;99.90;;;;;;5053957;28;20219;-44
2023/10/29 06:42:32;;;;;;;5.20;3.70;;;11.10;99.90;;;;;;5053985;28;20195;-44
2023/10/29 06:44:58;;;;;;;4.80;3.90;;;11.50;99.90;;;;;;5054069;28;20772;-44
2023/10/29 06:47:23;;;;;;;6.13;4.30;;;11.20;99.90;;;;;;5053426;28;20182;-44
2023/10/29 06:49:50;;;;;;;6.30;3.90;;;11.20;99.90;;;;;;5053719;28;20268;-44
2023/10/29 06:52:16;;;;;;;6.43;3.37;;;11.30;99.90;;;;;;5053091;28;20247;-44
2023/10/29 06:54:42;;;;;;;7.30;3.63;;;11.30;99.90;;;;;;5053646;28;20410;-44
2023/10/29 06:57:08;;;;;;;3.50;2.90;;;11.20;99.90;;;;;;5053335;28;20226;-44
2023/10/29 06:59:33;;;;;;;5.90;3.40;;;11.30;99.90;;;;;;5053483;28;20188;-44
2023/10/29 07:01:59;;;;;;;6.30;3.70;;;11.30;99.90;;;;;;5053297;28;20191;-44
2023/10/29 07:04:25;;;;;;;3.83;3.00;;;11.30;99.90;;;;;;5053192;28;20191;-44
2023/10/29 07:06:51;;;;;;;4.00;3.10;;;11.30;99.90;;;;;;5053231;28;20181;-44
2023/10/29 07:09:17;;;;;;;8.90;3.10;;;11.40;99.90;;;;;;5053516;28;20563;-44
2023/10/29 07:11:43;;;;;;;5.23;3.00;;;11.50;99.90;;;;;;5053119;28;20979;-44
2023/10/29 07:14:09;;;;;;;6.53;3.80;;;11.60;99.90;;;;;;5053853;28;20222;-44
2023/10/29 07:16:35;;;;;;;7.27;3.07;;;11.60;99.90;;;;;;5053362;28;20654;-43
2023/10/29 07:19:00;;;;;;;6.20;2.33;;;12.20;99.90;;;;;;5053746;28;20410;-44
2023/10/29 07:21:26;;;;;;;3.00;2.63;;;11.70;99.90;;;;;;5053031;28;20189;-44
2023/10/29 07:23:51;;;;;;;3.10;2.80;;;11.70;99.90;;;;;;5053010;28;20258;-44
2023/10/29 07:26:17;;;;;;;6.23;2.40;;;11.70;99.90;;;;;;5053440;28;20210;-43
2023/10/29 07:28:43;;;;;;;7.00;2.10;;;11.70;99.90;;;;;;5053585;28;20185;-43
2023/10/29 07:31:08;;;;;;;3.90;2.60;;;11.70;99.90;;;;;;5053619;28;20554;-44
2023/10/29 07:33:34;;;;;;;7.40;2.57;;;11.80;99.90;;;;;;5053228;28;20177;-43
2023/10/29 07:36:03;;;;;;;2.10;1.90;;;11.90;99.90;;;;;;5053384;28;20171;-44
2023/10/29 07:38:29;;;;;;;2.30;2.10;;;12.00;99.90;;;;;;5053600;28;20189;-44
2023/10/29 07:40:54;;;;;;;2.30;2.10;;;12.00;99.90;;;;;;5053505;28;20414;-44
2023/10/29 07:43:20;;;;;;;3.10;2.30;;;12.10;99.90;;;;;;5053094;28;20634;-44
2023/10/29 07:45:47;;;;;;;7.77;2.57;;;12.20;99.90;;;;;;5053174;28;20541;-44
2023/10/29 07:48:13;;;;;;;3.73;1.90;;;12.10;99.90;;;;;;5053232;28;20266;-44
2023/10/29 07:50:39;;;;;;;2.87;2.10;;;12.10;99.90;;;;;;5053195;28;20553;-44
2023/10/29 07:53:04;;;;;;;2.27;1.90;;;12.30;99.90;;;;;;5057201;28;20237;-44
2023/10/29 07:55:30;;;;;;;4.47;2.27;;;12.30;99.90;;;;;;5056919;28;20192;-44
2023/10/29 07:57:56;;;;;;;4.03;2.30;;;12.30;99.90;;;;;;5056667;28;20176;-44
2023/10/29 08:00:21;;;;;;;5.60;2.00;;;12.30;99.90;;;;;;5056574;28;20176;-44
2023/10/29 08:02:47;;;;;;;1.77;1.60;;;12.40;99.90;;;;;;5056579;28;20190;-44
2023/10/29 08:05:14;;;;;;;1.93;1.50;;;12.40;99.90;;;;;;5056556;28;20211;-44
2023/10/29 08:07:40;;;;;;;2.83;1.77;;;12.40;99.90;;;;;;5056454;28;20181;-45
2023/10/29 08:10:06;;;;;;;2.83;1.70;;;12.40;99.90;;;;;;5056508;28;20432;-44
2023/10/29 08:12:34;;;;;;;2.90;2.00;;;12.40;99.90;;;;;;5056320;28;20208;-44
2023/10/29 08:15:00;;;;;;;3.30;1.63;;;12.40;99.90;;;;;;5056637;28;20419;-44
2023/10/29 08:17:25;;;;;;;3.33;1.50;;;12.40;99.90;;;;;;5056027;28;20916;-44
2023/10/29 08:19:52;;;;;;;3.10;1.53;;;12.40;99.90;;;;;;5056202;28;20219;-44
2023/10/29 08:22:18;;;;;;;4.70;1.93;;;12.50;99.90;;;;;;5055711;28;20193;-44
2023/10/29 08:24:43;;;;;;;3.67;1.50;;;12.90;99.90;;;;;;5055491;28;20781;-44
2023/10/29 08:27:09;;;;;;;2.53;1.63;;;12.50;99.90;;;;;;5055716;28;20179;-44
2023/10/29 08:29:36;;;;;;;5.73;2.77;;;12.50;99.90;;;;;;5055676;28;20185;-44
2023/10/29 08:32:02;;;;;;;2.77;2.03;;;12.60;99.90;;;;;;5055537;28;20704;-44
2023/10/29 08:34:27;;;;;;;3.10;1.90;;;12.60;95.30;;;;;;5055317;28;20915;-44
2023/10/29 08:36:54;;;;;;;2.60;2.40;;;12.60;83.80;;;;;;5055409;28;20453;-44
2023/10/29 08:39:21;;;;;;;3.23;2.07;;;12.70;99.90;;;;;;5054437;28;20190;-44
2023/10/29 08:41:47;;;;;;;2.00;1.80;;;13.00;30.70;;;;;;5055827;28;20422;-44
2023/10/29 08:44:13;;;;;;;4.33;2.00;;;13.10;1.00;;;;;;5054303;28;20450;-44
2023/10/29 08:46:39;;;;;;;3.43;1.97;;;13.20;1.00;;;;;;5055341;28;20420;-44
2023/10/29 08:49:05;;;;;;;2.23;1.90;;;13.20;1.00;;;;;;5054825;28;20282;-44
2023/10/29 08:51:30;;;;;;;2.40;1.70;;;13.30;1.00;;;;;;5054904;28;20571;-44
2023/10/29 08:53:57;;;;;;;3.03;1.70;;;13.50;99.90;;;;;;5054736;28;20251;-44
2023/10/29 08:56:23;;;;;;;8.17;1.70;;;13.40;99.90;;;;;;5055157;28;20933;-44
2023/10/29 08:58:48;;;;;;;3.37;1.60;;;13.50;99.90;;;;;;5054665;28;20190;-44
2023/10/29 09:01:15;;;;;;;4.47;2.00;;;13.50;1.00;;;;;;5055071;28;20240;-44
2023/10/29 09:03:41;;;;;;;2.73;1.47;;;13.50;99.90;;;;;;5042927;28;20194;-44
2023/10/29 09:06:07;;;;;;;4.60;3.30;;;13.80;99.90;;;;;;5039769;28;20439;-44
2023/10/29 09:08:37;;;;;;;2.90;2.20;;;13.60;99.90;;;;;;5034731;28;20182;-44
2023/10/29 09:11:03;;;;;;;2.60;2.07;;;13.70;99.90;;;;;;5050149;28;20470;-44
2023/10/29 09:13:28;;;;;;;4.17;1.60;;;13.80;11.50;;;;;;5054838;28;20863;-44
2023/10/29 09:15:54;;;;;;;4.57;1.53;;;13.90;1.00;;;;;;5054869;28;20190;-44
2023/10/29 09:18:20;;;;;;;3.60;1.60;;;14.00;80.50;;;;;;5054652;28;20217;-44
2023/10/29 09:20:49;;;;;;;3.90;1.50;;;14.00;1.00;;;;;;5041185;28;20201;-44
2023/10/29 09:23:16;;;;;;;2.87;1.50;;;14.20;99.90;;;;;;5034785;28;20247;-44
2023/10/29 09:25:45;;;;;;;2.80;1.20;;;14.20;90.90;;;;;;5044114;28;20448;-44
2023/10/29 09:28:12;;;;;;;1.97;1.30;;;14.30;1.00;;;;;;5054245;28;20427;-44
2023/10/29 09:30:41;;;;;;;4.10;1.57;;;14.30;99.90;;;;;;5054561;28;20416;-44
2023/10/29 09:33:08;;;;;;;2.50;1.50;;;14.50;1.00;;;;;;5054206;28;20813;-44
2023/10/29 09:35:35;;;;;;;2.63;1.87;;;14.50;1.00;;;;;;5053895;28;20510;-44
2023/10/29 09:38:00;;;;;;;5.63;1.83;;;14.60;99.90;;;;;;5054377;28;20421;-44
2023/10/29 09:40:26;;;;;;;4.27;1.60;;;14.70;99.90;;;;;;5053701;28;20546;-44
2023/10/29 09:42:53;;;;;;;3.30;1.40;;;14.70;99.90;;;;;;5054266;28;20217;-44
2023/10/29 09:45:26;;;;;;;4.60;1.60;;;14.70;99.90;;;;;;5054264;28;20186;-45
2023/10/29 09:47:53;;;;;;;2.50;1.77;;;14.70;1.00;;;;;;5053894;28;20453;-44
2023/10/29 09:50:19;;;;;;;4.90;1.30;;;14.80;1.00;;;;;;5053910;28;20421;-44
2023/10/29 09:52:49;;;;;;;3.10;1.60;;;15.00;1.00;;;;;;5054125;28;20540;-44
2023/10/29 09:55:15;;;;;;;4.10;1.67;;;15.30;99.00;;;;;;5053820;28;20439;-44
2023/10/29 09:57:41;;;;;;;6.33;1.50;;;15.60;1.00;;;;;;5056327;28;20440;-45
2023/10/29 10:00:09;;;;;;;3.17;1.30;;;15.80;1.00;;;;;;5042358;28;20433;-44
2023/10/29 10:02:57;;;;;;;4.07;1.30;;;16.10;26.60;;;;;;5043262;28;20676;-44
2023/10/29 10:05:25;;;;;;;2.93;1.37;;;16.20;99.90;;;;;;5051929;28;20471;-44
2023/10/29 10:07:57;;;;;;;3.93;1.50;;;16.40;99.90;;;;;;5048993;28;20505;-45
2023/10/29 10:10:40;;;;;;;1.70;1.07;;;16.40;93.70;;;;;;5033950;28;20469;-44
2023/10/29 10:13:06;;;;;;;4.53;1.57;;;16.70;51.30;;;;;;5038278;28;20560;-44
2023/10/29 10:15:33;;;;;;;4.40;1.20;;;16.80;28.90;;;;;;5051031;28;20440;-44
2023/10/29 10:18:05;;;;;;;2.90;1.53;;;16.90;8.00;;;;;;5050341;28;20433;-44
2023/10/29 10:20:35;;;;;;;2.10;1.13;;;17.00;8.40;;;;;;5046013;28;20445;-44
2023/10/29 10:23:03;;;;;;;4.33;1.20;;;17.10;1.00;;;;;;5037988;28;20455;-45
2023/10/29 10:25:30;;;;;;;2.80;1.10;;;16.80;1.00;;;;;;5038194;28;20452;-44
2023/10/29 10:27:58;;;;;;;6.33;1.83;;;16.60;1.00;;;;;;5036825;28;20470;-44
2023/10/29 10:30:33;;;;;;;3.57;1.23;;;16.70;1.00;;;;;;5051328;28;20430;-44
2023/10/29 10:33:08;;;;;;;5.93;1.87;;;17.60;1.00;;;;;;5038168;28;20472;-44
2023/10/29 10:35:42;;;;;;;4.33;1.20;;;18.30;1.00;;;;;;5052633;28;20410;-44
2023/10/29 10:38:09;;;;;;;2.27;1.00;;;18.50;1.00;;;;;;5046688;28;20418;-44
2023/10/29 10:40:34;;;;;;;2.20;1.10;;;19.40;1.00;;;;;;5033301;28;20438;-44
2023/10/29 10:43:01;;;;;;;1.87;1.07;;;20.70;1.00;;;;;;5033449;28;20452;-44
2023/10/29 10:45:30;;;;;;;1.20;1.00;;;21.70;1.00;;;;;;5033260;28;20175;-44
2023/10/29 10:47:58;;;;;;;1.83;0.93;;;23.00;1.00;;;;;;5043117;28;20427;-44
2023/10/29 10:50:27;;;;;;;15.43;1.40;;;22.60;1.00;;;;;;5046432;28;20514;-44
2023/10/29 10:52:54;;;;;;;3.43;1.10;;;21.30;1.00;;;;;;5041946;28;20543;-44
2023/10/29 10:55:21;;;;;;;5.57;1.30;;;19.90;1.00;;;;;;5040406;28;20520;-44
2023/10/29 10:57:51;;;;;;;3.47;1.23;;;18.70;1.00;;;;;;5044644;28;20452;-44
2023/10/29 11:00:18;;;;;;;3.67;1.30;;;18.30;1.00;;;;;;5053184;28;20425;-44
2023/10/29 11:02:45;;;;;;;4.00;1.40;;;18.90;1.00;;;;;;5034601;28;20526;-44
2023/10/29 11:05:12;;;;;;;2.57;1.27;;;20.20;1.00;;;;;;5045149;28;20436;-44
2023/10/29 11:07:39;;;;;;;6.70;1.30;;;21.70;1.00;;;;;;5053172;28;20440;-44
2023/10/29 11:10:08;;;;;;;5.40;1.10;;;22.40;1.00;;;;;;5052818;28;20413;-43
2023/10/29 11:12:34;;;;;;;2.03;1.10;;;22.10;1.00;;;;;;5053051;28;20460;-44
2023/10/29 11:15:35;;;;;;;3.00;1.03;;;23.00;1.00;;;;;;5033316;28;20426;-44
2023/10/29 11:18:02;;;;;;;6.60;1.20;;;24.40;1.00;;;;;;5032652;28;20791;-44
2023/10/29 11:20:37;;;;;;;1.90;1.00;;;24.80;1.00;;;;;;5033128;28;20422;-43
2023/10/29 11:23:16;;;;;;;6.67;1.10;;;24.20;1.00;;;;;;5034041;28;20797;-44
2023/10/29 11:25:42;;;;;;;2.10;0.90;;;23.80;1.00;;;;;;5033147;28;20410;-44
2023/10/29 11:28:37;;;;;;;1.30;0.87;;;23.70;1.00;;;;;;5043780;28;20429;-43
2023/10/29 11:31:19;;;;;;;2.20;1.10;;;23.50;1.00;;;;;;5042911;28;20517;-44
2023/10/29 11:34:04;;;;;;;2.77;1.00;;;23.30;1.00;;;;;;5056955;28;20883;-44
2023/10/29 11:36:35;;;;;;;2.10;0.93;;;22.90;1.00;;;;;;5057016;28;20468;-43
2023/10/29 11:39:16;;;;;;;9.20;1.20;;;22.70;1.00;;;;;;5057429;28;20417;-43
2023/10/29 11:41:46;;;;;;;4.70;1.40;;;22.00;1.00;;;;;;5057011;28;20421;-44
2023/10/29 11:44:25;;;;;;;2.60;1.20;;;21.50;1.00;;;;;;5055863;28;20524;-44
2023/10/29 11:47:02;;;;;;;5.60;1.30;;;21.60;1.00;;;;;;5037171;28;20410;-43
2023/10/29 11:49:41;;;;;;;4.73;1.50;;;22.60;1.00;;;;;;5036859;28;20422;-44
2023/10/29 11:52:07;;;;;;;2.00;1.20;;;24.10;1.00;;;;;;5047686;28;20478;-43
2023/10/29 11:54:37;;;;;;;4.40;1.43;;;25.50;1.00;;;;;;5051172;28;20440;-44
2023/10/29 11:57:05;;;;;;;4.00;1.40;;;26.10;1.00;;;;;;5051129;28;20195;-44
2023/10/29 11:59:31;;;;;;;5.93;1.50;;;26.20;1.00;;;;;;5050215;28;20841;-44
2023/10/29 12:01:57;;;;;;;4.37;1.23;;;26.40;1.00;;;;;;5056210;28;20492;-43
2023/10/29 12:04:32;;;;;;;1.70;1.30;;;26.50;1.00;;;;;;5036304;28;20667;-44
2023/10/29 12:06:58;;;;;;;1.93;1.20;;;26.50;1.00;;;;;;5044709;28;20187;-45
2023/10/29 12:09:27;;;;;;;4.43;1.50;;;25.30;1.00;;;;;;5045037;28;20425;-44
2023/10/29 12:11:54;;;;;;;4.33;1.53;;;24.80;1.00;;;;;;5054928;28;20301;-44
2023/10/29 12:14:43;;;;;;;7.17;1.37;;;23.60;1.00;;;;;;5048571;28;20414;-44
2023/10/29 12:17:10;;;;;;;3.83;1.20;;;22.70;1.00;;;;;;5056720;28;20421;-44
2023/10/29 12:19:36;;;;;;;3.30;1.30;;;22.40;1.00;;;;;;5056259;28;20933;-43
2023/10/29 12:22:11;;;;;;;3.77;1.37;;;21.90;1.00;;;;;;5056252;28;20421;-44
2023/10/29 12:24:37;;;;;;;5.10;1.90;;;21.20;1.00;;;;;;5056013;28;20459;-44
2023/10/29 12:27:03;;;;;;;2.90;1.47;;;20.80;1.00;;;;;;5039187;28;20418;-43
2023/10/29 12:29:28;;;;;;;4.10;1.60;;;20.00;1.00;;;;;;5042673;28;20190;-44
2023/10/29 12:31:54;;;;;;;8.33;1.70;;;19.10;1.00;;;;;;5056305;28;20214;-44
2023/10/29 12:34:19;;;;;;;7.17;1.73;;;18.50;1.00;;;;;;5056185;28;20628;-43
2023/10/29 12:36:51;;;;;;;4.93;1.60;;;18.10;1.00;;;;;;5055604;28;20179;-43
2023/10/29 12:39:17;;;;;;;4.20;1.80;;;18.80;1.00;;;;;;5056092;28;20288;-43
2023/10/29 12:41:51;;;;;;;4.03;2.07;;;19.80;1.00;;;;;;5055803;28;20499;-43
2023/10/29 12:44:17;;;;;;;4.13;1.80;;;20.50;1.00;;;;;;5055912;28;20212;-43
2023/10/29 12:46:49;;;;;;;2.57;1.83;;;20.90;1.00;;;;;;5054735;28;20971;-44